createdAt,value
2023-05-11T00:00:44.883Z,9.93
2023-05-11T00:05:49.971Z,9.87
2023-05-11T00:10:53.027Z,9.81
2023-05-11T00:15:56.111Z,9.73
2023-05-11T00:20:59.108Z,9.68
2023-05-11T00:26:02.029Z,9.61
2023-05-11T00:31:05.518Z,9.55
2023-05-11T00:36:11.789Z,9.49
2023-05-11T00:41:14.743Z,9.44
2023-05-11T00:46:18.083Z,9.39
2023-05-11T00:51:22.235Z,9.34
2023-05-11T00:56:25.799Z,9.27
2023-05-11T01:01:30.577Z,9.19
2023-05-11T01:07:00.759Z,9.12
2023-05-11T01:12:09.381Z,9.07
2023-05-11T01:17:27.506Z,9.04
2023-05-11T01:22:39.369Z,9.00
2023-05-11T01:27:54.190Z,8.94
2023-05-11T01:33:06.500Z,8.90
2023-05-11T01:38:14.590Z,8.85
2023-05-11T01:43:21.947Z,8.81
2023-05-11T01:48:28.246Z,8.77
2023-05-11T01:53:35.952Z,8.74
2023-05-11T01:58:46.523Z,8.70
2023-05-11T02:03:51.696Z,8.63
2023-05-11T02:08:56.052Z,8.56
2023-05-11T02:13:59.705Z,8.48
2023-05-11T02:19:03.334Z,8.41
2023-05-11T02:24:08.424Z,8.38
2023-05-11T02:29:11.391Z,8.35
2023-05-11T02:34:28.898Z,8.34
2023-05-11T02:39:36.291Z,8.34
2023-05-11T02:44:40.916Z,8.32
2023-05-11T02:49:45.694Z,8.33
2023-05-11T02:54:52.853Z,8.30
2023-05-11T02:59:56.112Z,8.27
2023-05-11T03:04:59.040Z,8.27
2023-05-11T03:10:03.743Z,8.31
2023-05-11T03:15:07.648Z,8.36
2023-05-11T03:20:11.512Z,8.41
2023-05-11T03:25:16.560Z,8.46
2023-05-11T03:30:20.815Z,8.50
2023-05-11T03:35:27.401Z,8.65
2023-05-11T03:40:33.433Z,8.92
2023-05-11T03:45:37.718Z,9.55
2023-05-11T03:50:41.531Z,11.51
2023-05-11T03:55:44.640Z,13.52
2023-05-11T04:00:48.262Z,14.23
2023-05-11T04:05:51.212Z,14.16
2023-05-11T04:10:57.118Z,13.74
2023-05-11T04:16:00.264Z,13.32
2023-05-11T04:21:03.330Z,13.13
2023-05-11T04:26:06.324Z,13.02
2023-05-11T04:31:10.539Z,13.31
2023-05-11T04:36:13.546Z,14.56
2023-05-11T04:41:16.549Z,16.67
2023-05-11T04:46:23.701Z,19.44
2023-05-11T04:51:26.671Z,21.82
2023-05-11T04:56:29.597Z,23.73
2023-05-11T05:01:32.645Z,25.06
2023-05-11T05:06:35.586Z,25.71
2023-05-11T05:11:38.607Z,25.65
2023-05-11T05:16:41.666Z,24.87
2023-05-11T05:21:44.645Z,23.69
2023-05-11T05:26:47.575Z,22.43
2023-05-11T05:31:50.488Z,21.50
2023-05-11T05:36:56.395Z,20.66
2023-05-11T05:41:59.348Z,19.87
2023-05-11T05:47:02.298Z,19.15
2023-05-11T05:52:05.234Z,18.58
2023-05-11T05:57:08.289Z,18.05
2023-05-11T06:02:13.568Z,17.59
2023-05-11T06:07:16.619Z,17.16
2023-05-11T06:12:19.597Z,16.80
2023-05-11T06:17:22.569Z,16.54
2023-05-11T06:22:28.540Z,16.34
2023-05-11T06:27:34.248Z,16.19
2023-05-11T06:32:37.317Z,16.13
2023-05-11T06:37:40.315Z,16.10
2023-05-11T06:42:46.961Z,16.14
2023-05-11T06:47:50.061Z,16.20
2023-05-11T06:52:55.313Z,16.24
2023-05-11T06:57:58.243Z,16.28
2023-05-11T07:03:01.240Z,16.32
2023-05-11T07:08:05.216Z,16.39
2023-05-11T07:13:08.247Z,16.44
2023-05-11T07:18:11.447Z,16.45
2023-05-11T07:23:17.333Z,16.44
2023-05-11T07:28:20.229Z,16.47
2023-05-11T07:33:23.843Z,16.52
2023-05-11T07:38:26.745Z,16.58
2023-05-11T07:43:30.449Z,16.60
2023-05-11T07:48:33.650Z,16.61
2023-05-11T07:53:36.555Z,16.66
2023-05-11T07:58:39.353Z,16.69
2023-05-11T08:03:42.389Z,16.73
2023-05-11T08:08:45.614Z,16.70
2023-05-11T08:13:48.390Z,16.73
2023-05-11T08:18:51.369Z,16.79
2023-05-11T08:23:54.341Z,16.84
2023-05-11T08:28:57.465Z,16.90
2023-05-11T08:34:00.801Z,16.96
2023-05-11T08:39:04.006Z,17.01
2023-05-11T08:44:07.841Z,17.07
2023-05-11T08:49:10.788Z,17.08
2023-05-11T08:54:13.824Z,17.05
2023-05-11T08:59:17.013Z,17.01
2023-05-11T09:04:21.319Z,17.02
2023-05-11T09:09:27.442Z,17.06
2023-05-11T09:14:30.703Z,17.04
2023-05-11T09:19:33.540Z,17.05
2023-05-11T09:24:42.211Z,17.05
2023-05-11T09:29:51.928Z,17.08
2023-05-11T09:34:57.040Z,17.09
2023-05-11T09:40:25.829Z,17.14
2023-05-11T09:45:43.260Z,17.18
2023-05-11T09:50:47.945Z,17.18
2023-05-11T09:55:53.351Z,17.19
2023-05-11T10:00:56.278Z,17.18
2023-05-11T10:06:01.362Z,17.19
2023-05-11T10:11:08.776Z,17.25
2023-05-11T10:16:16.528Z,17.32
2023-05-11T10:21:20.182Z,17.34
2023-05-11T10:26:24.479Z,17.37
2023-05-11T10:31:28.683Z,17.40
2023-05-11T10:36:31.851Z,17.46
2023-05-11T10:42:01.691Z,17.49
2023-05-11T10:47:25.890Z,17.53
2023-05-11T10:52:50.294Z,17.58
2023-05-11T10:58:05.039Z,17.61
2023-05-11T11:03:12.541Z,17.59
2023-05-11T11:08:15.963Z,17.57
2023-05-11T11:13:20.215Z,17.56
2023-05-11T11:18:31.143Z,17.60
2023-05-11T11:23:54.542Z,17.66
2023-05-11T11:28:57.421Z,17.73
2023-05-11T11:34:29.505Z,17.75
2023-05-11T11:39:41.947Z,17.74
2023-05-11T11:44:46.352Z,17.70
2023-05-11T11:49:55.141Z,17.68
2023-05-11T11:55:00.202Z,17.71
2023-05-11T12:00:12.015Z,17.80
2023-05-11T12:05:23.308Z,17.92
2023-05-11T12:10:26.805Z,17.97
2023-05-11T12:15:34.814Z,18.03
2023-05-11T12:20:38.168Z,18.13
2023-05-11T12:25:41.090Z,18.26
2023-05-11T12:30:57.147Z,18.34
2023-05-11T12:36:01.716Z,18.43
2023-05-11T12:41:06.100Z,18.43
2023-05-11T12:46:09.207Z,18.40
2023-05-11T12:51:12.156Z,18.39
2023-05-11T12:56:15.068Z,18.40
2023-05-11T13:01:24.615Z,18.38
2023-05-11T13:06:27.584Z,18.38
2023-05-11T13:11:30.512Z,18.35
2023-05-11T13:16:34.050Z,18.36
2023-05-11T13:21:37.162Z,18.38
2023-05-11T13:26:40.066Z,18.40
2023-05-11T13:31:51.401Z,18.38
2023-05-11T13:36:54.510Z,18.24
2023-05-11T13:41:57.440Z,18.11
2023-05-11T13:47:00.500Z,18.15
2023-05-11T13:52:03.522Z,18.17
2023-05-11T13:57:07.092Z,18.12
2023-05-11T14:02:10.602Z,18.08
2023-05-11T14:07:15.388Z,18.00
2023-05-11T14:12:18.678Z,17.96
2023-05-11T14:17:21.704Z,17.97
2023-05-11T14:22:24.700Z,17.93
2023-05-11T14:27:28.307Z,17.92
2023-05-11T14:32:31.317Z,17.97
2023-05-11T14:37:34.314Z,17.99
2023-05-11T14:42:37.995Z,17.94
2023-05-11T14:47:41.054Z,17.96
2023-05-11T14:52:44.080Z,18.02
2023-05-11T14:57:46.973Z,18.08
2023-05-11T15:02:52.083Z,18.13
2023-05-11T15:07:55.023Z,18.15
2023-05-11T15:12:58.074Z,18.12
2023-05-11T15:18:01.024Z,18.08
2023-05-11T15:23:06.165Z,18.03
2023-05-11T15:28:11.331Z,18.02
2023-05-11T15:33:15.754Z,17.99
2023-05-11T15:38:18.861Z,17.97
2023-05-11T15:43:21.768Z,17.93
2023-05-11T15:48:27.500Z,17.86
2023-05-11T15:53:30.451Z,17.80
2023-05-11T15:58:33.421Z,17.74
2023-05-11T16:03:36.433Z,17.68
2023-05-11T16:08:41.627Z,17.63
2023-05-11T16:13:44.884Z,17.57
2023-05-11T16:18:47.766Z,17.51
2023-05-11T16:23:50.729Z,17.46
2023-05-11T16:28:53.793Z,17.41
2023-05-11T16:33:59.625Z,17.36
2023-05-11T16:39:02.586Z,17.30
2023-05-11T16:44:05.646Z,17.23
2023-05-11T16:49:08.617Z,17.17
2023-05-11T16:54:11.609Z,17.10
2023-05-11T16:59:14.862Z,17.03
2023-05-11T17:04:17.926Z,16.95
2023-05-11T17:09:21.258Z,16.86
2023-05-11T17:14:24.094Z,16.79
2023-05-11T17:19:27.222Z,16.71
2023-05-11T17:24:30.634Z,16.62
2023-05-11T17:29:36.658Z,16.51
2023-05-11T17:34:42.398Z,16.40
2023-05-11T17:39:47.212Z,16.29
2023-05-11T17:44:50.865Z,16.17
2023-05-11T17:49:54.158Z,16.07
2023-05-11T17:54:57.084Z,15.95
2023-05-11T17:59:59.899Z,15.84
2023-05-11T18:05:02.838Z,15.73
2023-05-11T18:10:06.680Z,15.62
2023-05-11T18:15:14.128Z,15.50
2023-05-11T18:20:17.315Z,15.38
2023-05-11T18:25:20.476Z,15.27
2023-05-11T18:30:26.246Z,15.16
2023-05-11T18:35:30.029Z,15.06
2023-05-11T18:40:33.070Z,14.94
2023-05-11T18:45:36.623Z,14.81
2023-05-11T18:50:40.411Z,14.69
2023-05-11T18:55:52.494Z,14.58
2023-05-11T19:00:57.061Z,14.47
2023-05-11T19:06:01.950Z,14.37
2023-05-11T19:11:10.485Z,14.26
2023-05-11T19:16:13.591Z,14.18
2023-05-11T19:21:17.094Z,14.09
2023-05-11T19:26:19.902Z,14.01
2023-05-11T19:31:27.502Z,13.95
2023-05-11T19:36:30.517Z,13.89
2023-05-11T19:41:34.394Z,13.86
2023-05-11T19:46:39.341Z,13.83
2023-05-11T19:51:43.301Z,13.78
2023-05-11T19:56:46.860Z,13.74
2023-05-11T20:01:49.856Z,13.68
2023-05-11T20:06:52.658Z,13.64
2023-05-11T20:11:55.985Z,13.58
2023-05-11T20:16:58.945Z,13.52
2023-05-11T20:22:03.674Z,13.46
2023-05-11T20:27:09.638Z,13.39
2023-05-11T20:32:12.612Z,13.33
2023-05-11T20:37:16.577Z,13.26
2023-05-11T20:42:19.522Z,13.19
2023-05-11T20:47:22.824Z,13.13
2023-05-11T20:52:25.920Z,13.07
2023-05-11T20:57:29.035Z,13.02
2023-05-11T21:02:32.112Z,12.96
2023-05-11T21:07:35.137Z,12.90
2023-05-11T21:12:38.056Z,12.86
2023-05-11T21:17:41.421Z,12.81
2023-05-11T21:22:44.456Z,12.77
2023-05-11T21:27:47.353Z,12.72
2023-05-11T21:32:50.871Z,12.67
2023-05-11T21:37:54.220Z,12.63
2023-05-11T21:43:00.279Z,12.60
2023-05-11T21:48:03.569Z,12.57
2023-05-11T21:53:07.208Z,12.54
2023-05-11T21:58:10.333Z,12.46
2023-05-11T22:03:13.418Z,12.39
2023-05-11T22:08:16.314Z,12.30
2023-05-11T22:13:20.704Z,12.23
2023-05-11T22:18:24.919Z,12.18
2023-05-11T22:23:27.840Z,12.11
2023-05-11T22:28:30.751Z,12.05
2023-05-11T22:33:33.758Z,12.03
2023-05-11T22:38:38.145Z,12.00
2023-05-11T22:43:41.156Z,11.95
2023-05-11T22:48:44.191Z,11.89
2023-05-11T22:53:48.928Z,11.84
2023-05-11T22:58:52.759Z,11.78
2023-05-11T23:03:55.837Z,11.74
2023-05-11T23:08:58.766Z,11.72
2023-05-11T23:14:03.593Z,11.69
2023-05-11T23:19:06.588Z,11.64
2023-05-11T23:24:09.618Z,11.61
2023-05-11T23:29:12.544Z,11.58
2023-05-11T23:34:15.481Z,11.55
2023-05-11T23:39:18.381Z,11.50
2023-05-11T23:44:21.286Z,11.45
2023-05-11T23:49:24.282Z,11.39
2023-05-11T23:54:27.187Z,11.34
2023-05-11T23:59:30.121Z,11.27
